Airport View

Enter AWOS ICAO identifier for current METAR.

ex. KFNL

KRNT 191253Z AUTO 12003KT 10SM OVC048 04/02 A3027 RMK AO2 SLP254 T00390017

19 Feb 2019 13:30

Phone: 425-255-6080

Other Area AWOS: KBFI - KSEA - KTIW - KPWT

TAF KBFI 191135Z 1912/2012 14004KT P6SM BKN016 OVC030 FM192100 16008KT P6SM -RA OVC018 FM200800 18007KT 6SM -SHRA BR BKN015 BKN030